sensor_id;sensor_type;location;lat;lon;timestamp;temperature;humidity
19039;DHT22;9652;49.014;12.052;2023-03-26T00:01:04;10.80;76.10
19039;DHT22;9652;49.014;12.052;2023-03-26T00:03:33;10.80;75.90
19039;DHT22;9652;49.014;12.052;2023-03-26T00:06:02;10.80;75.60
19039;DHT22;9652;49.014;12.052;2023-03-26T00:08:32;10.90;75.30
19039;DHT22;9652;49.014;12.052;2023-03-26T00:11:00;10.80;74.90
19039;DHT22;9652;49.014;12.052;2023-03-26T00:13:28;10.80;74.60
19039;DHT22;9652;49.014;12.052;2023-03-26T00:15:58;10.80;74.60
19039;DHT22;9652;49.014;12.052;2023-03-26T00:18:26;10.80;74.70
19039;DHT22;9652;49.014;12.052;2023-03-26T00:20:56;10.80;74.90
19039;DHT22;9652;49.014;12.052;2023-03-26T00:23:24;10.80;74.90
19039;DHT22;9652;49.014;12.052;2023-03-26T00:25:51;10.80;75.00
19039;DHT22;9652;49.014;12.052;2023-03-26T00:28:19;10.90;75.00
19039;DHT22;9652;49.014;12.052;2023-03-26T00:30:47;10.90;74.80
19039;DHT22;9652;49.014;12.052;2023-03-26T00:33:16;10.90;74.80
19039;DHT22;9652;49.014;12.052;2023-03-26T00:35:51;10.90;74.60
19039;DHT22;9652;49.014;12.052;2023-03-26T00:38:19;11.00;74.30
19039;DHT22;9652;49.014;12.052;2023-03-26T00:40:47;11.00;74.30
19039;DHT22;9652;49.014;12.052;2023-03-26T00:43:16;10.90;73.90
19039;DHT22;9652;49.014;12.052;2023-03-26T00:45:46;11.00;73.60
19039;DHT22;9652;49.014;12.052;2023-03-26T00:48:16;11.00;73.30
19039;DHT22;9652;49.014;12.052;2023-03-26T00:50:45;11.00;72.90
19039;DHT22;9652;49.014;12.052;2023-03-26T00:53:14;10.90;72.70
19039;DHT22;9652;49.014;12.052;2023-03-26T00:55:44;10.90;72.80
19039;DHT22;9652;49.014;12.052;2023-03-26T00:58:13;10.90;73.10
19039;DHT22;9652;49.014;12.052;2023-03-26T01:00:43;10.90;73.40
19039;DHT22;9652;49.014;12.052;2023-03-26T01:03:14;10.90;73.60
19039;DHT22;9652;49.014;12.052;2023-03-26T01:05:46;10.90;73.80
19039;DHT22;9652;49.014;12.052;2023-03-26T01:08:24;11.00;73.80
19039;DHT22;9652;49.014;12.052;2023-03-26T01:10:57;11.00;73.60
19039;DHT22;9652;49.014;12.052;2023-03-26T01:13:32;11.10;73.60
19039;DHT22;9652;49.014;12.052;2023-03-26T01:16:02;11.10;73.60
19039;DHT22;9652;49.014;12.052;2023-03-26T01:18:37;11.20;73.60
19039;DHT22;9652;49.014;12.052;2023-03-26T01:21:07;11.30;73.70
19039;DHT22;9652;49.014;12.052;2023-03-26T01:23:45;11.30;73.50
19039;DHT22;9652;49.014;12.052;2023-03-26T01:26:23;11.30;73.20
19039;DHT22;9652;49.014;12.052;2023-03-26T01:29:13;11.40;73.00
19039;DHT22;9652;49.014;12.052;2023-03-26T01:31:51;11.40;73.00
19039;DHT22;9652;49.014;12.052;2023-03-26T01:34:31;11.50;72.80
19039;DHT22;9652;49.014;12.052;2023-03-26T01:37:13;11.50;72.60
19039;DHT22;9652;49.014;12.052;2023-03-26T01:39:50;11.60;72.40
19039;DHT22;9652;49.014;12.052;2023-03-26T01:42:29;11.60;72.30
19039;DHT22;9652;49.014;12.052;2023-03-26T01:45:08;11.60;71.80
19039;DHT22;9652;49.014;12.052;2023-03-26T01:47:40;11.60;71.80
19039;DHT22;9652;49.014;12.052;2023-03-26T01:50:09;11.60;71.80
19039;DHT22;9652;49.014;12.052;2023-03-26T01:52:37;11.60;72.40
19039;DHT22;9652;49.014;12.052;2023-03-26T01:55:05;11.60;71.70
19039;DHT22;9652;49.014;12.052;2023-03-26T01:57:44;11.60;71.60
19039;DHT22;9652;49.014;12.052;2023-03-26T02:00:24;11.60;71.30
19039;DHT22;9652;49.014;12.052;2023-03-26T02:03:04;11.60;71.30
19039;DHT22;9652;49.014;12.052;2023-03-26T02:05:47;11.70;71.20
19039;DHT22;9652;49.014;12.052;2023-03-26T02:08:23;11.60;71.30
19039;DHT22;9652;49.014;12.052;2023-03-26T02:11:02;11.60;71.40
19039;DHT22;9652;49.014;12.052;2023-03-26T02:13:37;11.60;71.50
19039;DHT22;9652;49.014;12.052;2023-03-26T02:16:07;11.60;71.40
19039;DHT22;9652;49.014;12.052;2023-03-26T02:18:36;11.60;71.20
19039;DHT22;9652;49.014;12.052;2023-03-26T02:21:08;11.60;71.30
19039;DHT22;9652;49.014;12.052;2023-03-26T02:23:39;11.70;71.40
19039;DHT22;9652;49.014;12.052;2023-03-26T02:26:13;11.70;71.40
19039;DHT22;9652;49.014;12.052;2023-03-26T02:29:09;11.70;71.30
19039;DHT22;9652;49.014;12.052;2023-03-26T02:31:39;11.70;71.30
19039;DHT22;9652;49.014;12.052;2023-03-26T02:34:07;11.80;71.20
19039;DHT22;9652;49.014;12.052;2023-03-26T02:36:37;11.80;71.10
19039;DHT22;9652;49.014;12.052;2023-03-26T02:39:07;11.80;71.20
19039;DHT22;9652;49.014;12.052;2023-03-26T02:41:37;11.80;71.90
19039;DHT22;9652;49.014;12.052;2023-03-26T02:44:09;11.80;71.00
19039;DHT22;9652;49.014;12.052;2023-03-26T02:46:59;11.80;70.80
19039;DHT22;9652;49.014;12.052;2023-03-26T02:49:44;11.80;70.80
19039;DHT22;9652;49.014;12.052;2023-03-26T02:52:18;11.90;70.80
19039;DHT22;9652;49.014;12.052;2023-03-26T02:54:47;11.80;70.70
19039;DHT22;9652;49.014;12.052;2023-03-26T02:57:26;11.90;70.60
19039;DHT22;9652;49.014;12.052;2023-03-26T03:00:15;11.80;70.40
19039;DHT22;9652;49.014;12.052;2023-03-26T03:02:48;11.90;70.40
19039;DHT22;9652;49.014;12.052;2023-03-26T03:05:29;11.80;70.50
19039;DHT22;9652;49.014;12.052;2023-03-26T03:08:12;11.90;70.50
19039;DHT22;9652;49.014;12.052;2023-03-26T03:10:57;11.80;70.30
19039;DHT22;9652;49.014;12.052;2023-03-26T03:13:36;11.80;69.80
19039;DHT22;9652;49.014;12.052;2023-03-26T03:16:06;11.80;69.80
19039;DHT22;9652;49.014;12.052;2023-03-26T03:18:34;11.80;69.70
19039;DHT22;9652;49.014;12.052;2023-03-26T03:21:03;11.70;69.50
19039;DHT22;9652;49.014;12.052;2023-03-26T03:23:31;11.70;69.40
19039;DHT22;9652;49.014;12.052;2023-03-26T03:26:18;11.70;69.30
19039;DHT22;9652;49.014;12.052;2023-03-26T03:28:51;11.60;69.10
19039;DHT22;9652;49.014;12.052;2023-03-26T03:31:19;11.60;69.00
19039;DHT22;9652;49.014;12.052;2023-03-26T03:33:47;11.50;68.90
19039;DHT22;9652;49.014;12.052;2023-03-26T03:36:17;11.50;68.90
19039;DHT22;9652;49.014;12.052;2023-03-26T03:38:53;11.40;69.00
19039;DHT22;9652;49.014;12.052;2023-03-26T03:41:22;11.30;69.10
19039;DHT22;9652;49.014;12.052;2023-03-26T03:43:49;11.30;69.50
19039;DHT22;9652;49.014;12.052;2023-03-26T03:46:25;11.30;69.90
19039;DHT22;9652;49.014;12.052;2023-03-26T03:48:52;11.30;70.10
19039;DHT22;9652;49.014;12.052;2023-03-26T03:51:30;11.30;70.10
19039;DHT22;9652;49.014;12.052;2023-03-26T03:54:01;11.30;70.10
19039;DHT22;9652;49.014;12.052;2023-03-26T03:56:43;11.30;70.20
19039;DHT22;9652;49.014;12.052;2023-03-26T03:59:14;11.30;70.10
19039;DHT22;9652;49.014;12.052;2023-03-26T04:01:43;11.30;70.10
19039;DHT22;9652;49.014;12.052;2023-03-26T04:04:20;11.30;70.10
19039;DHT22;9652;49.014;12.052;2023-03-26T04:06:59;11.30;70.20
19039;DHT22;9652;49.014;12.052;2023-03-26T04:09:34;11.20;70.00
19039;DHT22;9652;49.014;12.052;2023-03-26T04:12:09;11.20;69.90
19039;DHT22;9652;49.014;12.052;2023-03-26T04:14:44;11.20;69.70
19039;DHT22;9652;49.014;12.052;2023-03-26T04:17:15;11.20;69.50
19039;DHT22;9652;49.014;12.052;2023-03-26T04:19:44;11.10;69.40
19039;DHT22;9652;49.014;12.052;2023-03-26T04:22:13;11.10;69.30
19039;DHT22;9652;49.014;12.052;2023-03-26T04:24:56;11.00;69.30
19039;DHT22;9652;49.014;12.052;2023-03-26T04:27:31;11.00;69.20
19039;DHT22;9652;49.014;12.052;2023-03-26T04:30:31;10.90;69.20
19039;DHT22;9652;49.014;12.052;2023-03-26T04:33:10;10.80;69.20
19039;DHT22;9652;49.014;12.052;2023-03-26T04:35:40;10.80;69.30
19039;DHT22;9652;49.014;12.052;2023-03-26T04:38:11;10.70;69.40
19039;DHT22;9652;49.014;12.052;2023-03-26T04:40:44;10.60;69.30
19039;DHT22;9652;49.014;12.052;2023-03-26T04:43:35;10.60;69.30
19039;DHT22;9652;49.014;12.052;2023-03-26T04:46:36;10.40;69.10
19039;DHT22;9652;49.014;12.052;2023-03-26T04:49:12;10.50;69.30
19039;DHT22;9652;49.014;12.052;2023-03-26T04:51:39;10.40;69.30
19039;DHT22;9652;49.014;12.052;2023-03-26T04:54:23;10.40;69.50
19039;DHT22;9652;49.014;12.052;2023-03-26T04:56:58;10.20;69.60
19039;DHT22;9652;49.014;12.052;2023-03-26T04:59:32;10.20;70.00
19039;DHT22;9652;49.014;12.052;2023-03-26T05:02:05;10.10;70.10
19039;DHT22;9652;49.014;12.052;2023-03-26T05:04:51;10.10;70.60
19039;DHT22;9652;49.014;12.052;2023-03-26T05:07:21;10.10;70.60
19039;DHT22;9652;49.014;12.052;2023-03-26T05:09:54;10.10;70.80
19039;DHT22;9652;49.014;12.052;2023-03-26T05:12:42;10.10;71.00
19039;DHT22;9652;49.014;12.052;2023-03-26T05:15:17;10.10;71.20
19039;DHT22;9652;49.014;12.052;2023-03-26T05:18:07;10.10;71.30
19039;DHT22;9652;49.014;12.052;2023-03-26T05:20:45;10.10;71.50
19039;DHT22;9652;49.014;12.052;2023-03-26T05:23:12;10.10;71.70
19039;DHT22;9652;49.014;12.052;2023-03-26T05:25:42;10.10;71.90
19039;DHT22;9652;49.014;12.052;2023-03-26T05:28:15;10.10;72.00
19039;DHT22;9652;49.014;12.052;2023-03-26T05:30:54;10.20;72.20
19039;DHT22;9652;49.014;12.052;2023-03-26T05:33:23;10.20;72.20
19039;DHT22;9652;49.014;12.052;2023-03-26T05:36:02;10.20;72.20
19039;DHT22;9652;49.014;12.052;2023-03-26T05:38:32;10.20;72.30
19039;DHT22;9652;49.014;12.052;2023-03-26T05:41:03;10.30;72.40
19039;DHT22;9652;49.014;12.052;2023-03-26T05:43:34;10.30;72.40
19039;DHT22;9652;49.014;12.052;2023-03-26T05:46:14;10.30;72.40
19039;DHT22;9652;49.014;12.052;2023-03-26T05:48:42;10.40;72.50
19039;DHT22;9652;49.014;12.052;2023-03-26T05:51:11;10.40;72.50
19039;DHT22;9652;49.014;12.052;2023-03-26T05:53:46;10.50;72.60
19039;DHT22;9652;49.014;12.052;2023-03-26T05:56:31;10.50;72.70
19039;DHT22;9652;49.014;12.052;2023-03-26T05:59:17;10.50;72.60
19039;DHT22;9652;49.014;12.052;2023-03-26T06:02:03;10.60;72.70
19039;DHT22;9652;49.014;12.052;2023-03-26T06:04:56;10.70;72.90
19039;DHT22;9652;49.014;12.052;2023-03-26T06:07:43;10.70;72.90
19039;DHT22;9652;49.014;12.052;2023-03-26T06:10:16;10.80;72.70
19039;DHT22;9652;49.014;12.052;2023-03-26T06:12:44;10.80;72.70
19039;DHT22;9652;49.014;12.052;2023-03-26T06:15:11;10.90;72.70
19039;DHT22;9652;49.014;12.052;2023-03-26T06:17:45;10.90;72.80
19039;DHT22;9652;49.014;12.052;2023-03-26T06:20:19;11.00;72.90
19039;DHT22;9652;49.014;12.052;2023-03-26T06:22:49;11.10;73.10
19039;DHT22;9652;49.014;12.052;2023-03-26T06:25:19;11.10;73.10
19039;DHT22;9652;49.014;12.052;2023-03-26T06:28:05;11.20;73.10
19039;DHT22;9652;49.014;12.052;2023-03-26T06:30:49;11.30;73.20
19039;DHT22;9652;49.014;12.052;2023-03-26T06:33:36;11.40;73.00
19039;DHT22;9652;49.014;12.052;2023-03-26T06:36:04;11.50;72.90
19039;DHT22;9652;49.014;12.052;2023-03-26T06:38:33;11.60;72.80
19039;DHT22;9652;49.014;12.052;2023-03-26T06:41:04;11.60;72.70
19039;DHT22;9652;49.014;12.052;2023-03-26T06:43:52;11.70;72.70
19039;DHT22;9652;49.014;12.052;2023-03-26T06:46:39;11.90;72.50
19039;DHT22;9652;49.014;12.052;2023-03-26T06:49:38;11.80;72.20
19039;DHT22;9652;49.014;12.052;2023-03-26T06:52:25;11.90;72.10
19039;DHT22;9652;49.014;12.052;2023-03-26T06:55:13;11.90;72.00
19039;DHT22;9652;49.014;12.052;2023-03-26T06:57:59;12.00;71.80
19039;DHT22;9652;49.014;12.052;2023-03-26T07:00:42;12.00;71.60
19039;DHT22;9652;49.014;12.052;2023-03-26T07:03:29;12.00;71.40
19039;DHT22;9652;49.014;12.052;2023-03-26T07:06:14;12.00;71.30
19039;DHT22;9652;49.014;12.052;2023-03-26T07:09:00;12.10;71.40
19039;DHT22;9652;49.014;12.052;2023-03-26T07:11:58;12.10;71.50
19039;DHT22;9652;49.014;12.052;2023-03-26T07:14:54;12.10;71.60
19039;DHT22;9652;49.014;12.052;2023-03-26T07:17:40;12.10;71.70
19039;DHT22;9652;49.014;12.052;2023-03-26T07:20:18;12.20;71.80
19039;DHT22;9652;49.014;12.052;2023-03-26T07:22:47;12.30;72.00
19039;DHT22;9652;49.014;12.052;2023-03-26T07:25:28;12.30;72.00
19039;DHT22;9652;49.014;12.052;2023-03-26T07:28:33;12.40;71.70
19039;DHT22;9652;49.014;12.052;2023-03-26T07:31:28;12.50;71.10
19039;DHT22;9652;49.014;12.052;2023-03-26T07:34:39;12.60;71.10
19039;DHT22;9652;49.014;12.052;2023-03-26T07:37:35;12.60;70.60
19039;DHT22;9652;49.014;12.052;2023-03-26T07:40:52;12.70;70.70
19039;DHT22;9652;49.014;12.052;2023-03-26T07:44:03;12.70;70.10
19039;DHT22;9652;49.014;12.052;2023-03-26T07:47:25;12.80;70.30
19039;DHT22;9652;49.014;12.052;2023-03-26T07:50:21;12.80;70.50
19039;DHT22;9652;49.014;12.052;2023-03-26T07:52:58;12.90;70.80
19039;DHT22;9652;49.014;12.052;2023-03-26T07:55:32;12.90;71.00
19039;DHT22;9652;49.014;12.052;2023-03-26T07:58:42;13.00;71.10
19039;DHT22;9652;49.014;12.052;2023-03-26T08:01:57;13.10;70.30
19039;DHT22;9652;49.014;12.052;2023-03-26T08:04:55;13.20;70.30
19039;DHT22;9652;49.014;12.052;2023-03-26T08:08:03;13.10;70.10
19039;DHT22;9652;49.014;12.052;2023-03-26T08:10:56;13.30;70.00
19039;DHT22;9652;49.014;12.052;2023-03-26T08:13:53;13.30;70.10
19039;DHT22;9652;49.014;12.052;2023-03-26T08:16:31;13.40;69.80
19039;DHT22;9652;49.014;12.052;2023-03-26T08:19:14;13.40;70.00
19039;DHT22;9652;49.014;12.052;2023-03-26T08:22:04;13.50;69.80
19039;DHT22;9652;49.014;12.052;2023-03-26T08:24:42;13.50;69.90
19039;DHT22;9652;49.014;12.052;2023-03-26T08:27:22;13.70;70.10
19039;DHT22;9652;49.014;12.052;2023-03-26T08:30:01;13.70;70.30
19039;DHT22;9652;49.014;12.052;2023-03-26T08:32:35;13.80;70.20
19039;DHT22;9652;49.014;12.052;2023-03-26T08:35:04;13.80;70.00
19039;DHT22;9652;49.014;12.052;2023-03-26T08:37:34;13.90;69.80
19039;DHT22;9652;49.014;12.052;2023-03-26T08:40:01;13.90;69.70
19039;DHT22;9652;49.014;12.052;2023-03-26T08:45:59;14.00;68.70
19039;DHT22;9652;49.014;12.052;2023-03-26T08:48:59;14.10;68.90
19039;DHT22;9652;49.014;12.052;2023-03-26T08:58:28;14.10;68.20
19039;DHT22;9652;49.014;12.052;2023-03-26T09:05:05;14.10;69.20
19039;DHT22;9652;49.014;12.052;2023-03-26T09:11:34;14.20;69.40
19039;DHT22;9652;49.014;12.052;2023-03-26T09:14:45;14.20;69.70
19039;DHT22;9652;49.014;12.052;2023-03-26T09:17:46;14.20;69.70
19039;DHT22;9652;49.014;12.052;2023-03-26T09:20:52;14.30;69.40
19039;DHT22;9652;49.014;12.052;2023-03-26T09:23:49;14.30;70.00
19039;DHT22;9652;49.014;12.052;2023-03-26T09:26:58;14.30;69.40
19039;DHT22;9652;49.014;12.052;2023-03-26T09:30:03;14.40;69.30
19039;DHT22;9652;49.014;12.052;2023-03-26T09:33:20;14.40;69.00
19039;DHT22;9652;49.014;12.052;2023-03-26T09:36:18;14.30;68.80
19039;DHT22;9652;49.014;12.052;2023-03-26T09:38:57;14.30;68.80
19039;DHT22;9652;49.014;12.052;2023-03-26T09:41:41;14.30;69.40
19039;DHT22;9652;49.014;12.052;2023-03-26T09:44:37;14.30;69.30
19039;DHT22;9652;49.014;12.052;2023-03-26T09:47:44;14.30;69.10
19039;DHT22;9652;49.014;12.052;2023-03-26T09:50:53;14.20;69.00
19039;DHT22;9652;49.014;12.052;2023-03-26T09:53:43;14.20;69.00
19039;DHT22;9652;49.014;12.052;2023-03-26T09:56:30;14.10;69.20
19039;DHT22;9652;49.014;12.052;2023-03-26T09:59:39;14.10;69.50
19039;DHT22;9652;49.014;12.052;2023-03-26T10:02:33;14.10;69.70
19039;DHT22;9652;49.014;12.052;2023-03-26T10:05:25;14.10;69.60
19039;DHT22;9652;49.014;12.052;2023-03-26T10:08:15;14.20;69.40
19039;DHT22;9652;49.014;12.052;2023-03-26T10:10:55;14.20;69.40
19039;DHT22;9652;49.014;12.052;2023-03-26T10:13:32;14.20;69.40
19039;DHT22;9652;49.014;12.052;2023-03-26T10:16:19;14.20;69.40
19039;DHT22;9652;49.014;12.052;2023-03-26T10:19:09;14.20;69.70
19039;DHT22;9652;49.014;12.052;2023-03-26T10:21:54;14.20;69.50
19039;DHT22;9652;49.014;12.052;2023-03-26T10:24:42;14.30;69.40
19039;DHT22;9652;49.014;12.052;2023-03-26T10:27:30;14.40;69.40
19039;DHT22;9652;49.014;12.052;2023-03-26T10:30:27;14.40;69.00
19039;DHT22;9652;49.014;12.052;2023-03-26T10:33:17;14.40;68.30
19039;DHT22;9652;49.014;12.052;2023-03-26T10:36:11;14.40;68.50
19039;DHT22;9652;49.014;12.052;2023-03-26T10:38:53;14.40;68.00
19039;DHT22;9652;49.014;12.052;2023-03-26T10:41:38;14.40;68.30
19039;DHT22;9652;49.014;12.052;2023-03-26T10:44:32;14.50;68.40
19039;DHT22;9652;49.014;12.052;2023-03-26T10:47:39;14.40;68.20
19039;DHT22;9652;49.014;12.052;2023-03-26T10:50:31;14.40;68.70
19039;DHT22;9652;49.014;12.052;2023-03-26T10:53:14;14.30;68.50
19039;DHT22;9652;49.014;12.052;2023-03-26T10:55:54;14.30;68.60
19039;DHT22;9652;49.014;12.052;2023-03-26T10:58:28;14.20;68.70
19039;DHT22;9652;49.014;12.052;2023-03-26T11:01:00;14.10;68.70
19039;DHT22;9652;49.014;12.052;2023-03-26T11:03:46;14.00;68.90
19039;DHT22;9652;49.014;12.052;2023-03-26T11:06:28;13.90;69.20
19039;DHT22;9652;49.014;12.052;2023-03-26T11:09:05;13.90;68.90
19039;DHT22;9652;49.014;12.052;2023-03-26T11:11:44;13.70;68.80
19039;DHT22;9652;49.014;12.052;2023-03-26T11:14:23;13.70;69.40
19039;DHT22;9652;49.014;12.052;2023-03-26T11:17:01;13.60;69.70
19039;DHT22;9652;49.014;12.052;2023-03-26T11:19:41;13.60;70.10
19039;DHT22;9652;49.014;12.052;2023-03-26T11:22:22;13.60;70.50
19039;DHT22;9652;49.014;12.052;2023-03-26T11:25:13;13.60;70.50
19039;DHT22;9652;49.014;12.052;2023-03-26T11:28:09;13.60;70.30
19039;DHT22;9652;49.014;12.052;2023-03-26T11:30:49;13.50;70.50
19039;DHT22;9652;49.014;12.052;2023-03-26T11:33:22;13.50;70.60
19039;DHT22;9652;49.014;12.052;2023-03-26T11:35:57;13.50;70.80
19039;DHT22;9652;49.014;12.052;2023-03-26T11:38:32;13.50;70.80
19039;DHT22;9652;49.014;12.052;2023-03-26T11:41:10;13.50;70.80
19039;DHT22;9652;49.014;12.052;2023-03-26T11:43:51;13.40;70.60
19039;DHT22;9652;49.014;12.052;2023-03-26T11:46:25;13.40;70.60
19039;DHT22;9652;49.014;12.052;2023-03-26T11:48:56;13.40;70.80
19039;DHT22;9652;49.014;12.052;2023-03-26T11:51:28;13.40;70.80
19039;DHT22;9652;49.014;12.052;2023-03-26T11:53:57;13.30;70.60
19039;DHT22;9652;49.014;12.052;2023-03-26T11:56:27;13.30;70.60
19039;DHT22;9652;49.014;12.052;2023-03-26T11:59:00;13.30;70.90
19039;DHT22;9652;49.014;12.052;2023-03-26T12:01:42;13.30;71.30
19039;DHT22;9652;49.014;12.052;2023-03-26T12:04:16;13.30;71.90
19039;DHT22;9652;49.014;12.052;2023-03-26T12:06:55;13.20;72.00
19039;DHT22;9652;49.014;12.052;2023-03-26T12:09:24;13.30;72.50
19039;DHT22;9652;49.014;12.052;2023-03-26T12:11:58;13.40;73.00
19039;DHT22;9652;49.014;12.052;2023-03-26T12:14:28;13.50;73.20
19039;DHT22;9652;49.014;12.052;2023-03-26T12:17:02;13.60;73.20
19039;DHT22;9652;49.014;12.052;2023-03-26T12:19:37;13.70;73.10
19039;DHT22;9652;49.014;12.052;2023-03-26T12:22:26;13.90;72.80
19039;DHT22;9652;49.014;12.052;2023-03-26T12:25:14;14.00;72.00
19039;DHT22;9652;49.014;12.052;2023-03-26T12:27:44;14.20;71.40
19039;DHT22;9652;49.014;12.052;2023-03-26T12:30:19;14.20;70.80
19039;DHT22;9652;49.014;12.052;2023-03-26T12:32:49;14.30;70.20
19039;DHT22;9652;49.014;12.052;2023-03-26T12:35:21;14.30;70.70
19039;DHT22;9652;49.014;12.052;2023-03-26T12:37:54;14.40;71.10
19039;DHT22;9652;49.014;12.052;2023-03-26T12:40:29;14.40;71.40
19039;DHT22;9652;49.014;12.052;2023-03-26T12:42:58;14.50;72.00
19039;DHT22;9652;49.014;12.052;2023-03-26T12:45:31;14.70;72.80
19039;DHT22;9652;49.014;12.052;2023-03-26T12:48:04;14.90;72.30
19039;DHT22;9652;49.014;12.052;2023-03-26T12:50:46;15.10;71.60
19039;DHT22;9652;49.014;12.052;2023-03-26T12:53:45;15.20;70.10
19039;DHT22;9652;49.014;12.052;2023-03-26T12:56:26;15.40;69.90
19039;DHT22;9652;49.014;12.052;2023-03-26T13:02:05;15.60;69.50
19039;DHT22;9652;49.014;12.052;2023-03-26T13:05:07;15.70;69.90
19039;DHT22;9652;49.014;12.052;2023-03-26T13:07:56;15.80;69.40
19039;DHT22;9652;49.014;12.052;2023-03-26T13:10:52;15.90;69.20
19039;DHT22;9652;49.014;12.052;2023-03-26T13:13:52;16.00;68.60
19039;DHT22;9652;49.014;12.052;2023-03-26T13:16:41;16.10;67.90
19039;DHT22;9652;49.014;12.052;2023-03-26T13:19:18;16.00;67.90
19039;DHT22;9652;49.014;12.052;2023-03-26T13:21:59;16.20;68.60
19039;DHT22;9652;49.014;12.052;2023-03-26T13:24:44;16.30;67.90
19039;DHT22;9652;49.014;12.052;2023-03-26T13:27:29;16.30;68.30
19039;DHT22;9652;49.014;12.052;2023-03-26T13:30:11;16.30;68.40
19039;DHT22;9652;49.014;12.052;2023-03-26T13:32:52;16.40;68.40
19039;DHT22;9652;49.014;12.052;2023-03-26T13:35:31;16.50;68.10
19039;DHT22;9652;49.014;12.052;2023-03-26T13:38:09;16.60;68.10
19039;DHT22;9652;49.014;12.052;2023-03-26T13:40:46;16.70;68.10
19039;DHT22;9652;49.014;12.052;2023-03-26T13:43:31;16.80;67.90
19039;DHT22;9652;49.014;12.052;2023-03-26T13:46:13;16.90;67.10
19039;DHT22;9652;49.014;12.052;2023-03-26T13:48:50;17.00;66.40
19039;DHT22;9652;49.014;12.052;2023-03-26T13:51:26;17.00;66.30
19039;DHT22;9652;49.014;12.052;2023-03-26T13:54:04;17.00;66.00
19039;DHT22;9652;49.014;12.052;2023-03-26T13:56:41;16.90;65.20
19039;DHT22;9652;49.014;12.052;2023-03-26T13:59:18;16.80;65.00
19039;DHT22;9652;49.014;12.052;2023-03-26T14:01:53;16.80;64.90
19039;DHT22;9652;49.014;12.052;2023-03-26T14:04:26;16.70;65.20
19039;DHT22;9652;49.014;12.052;2023-03-26T14:07:02;16.70;65.70
19039;DHT22;9652;49.014;12.052;2023-03-26T14:09:38;16.70;66.10
19039;DHT22;9652;49.014;12.052;2023-03-26T14:12:31;16.80;66.10
19039;DHT22;9652;49.014;12.052;2023-03-26T14:15:11;16.80;65.00
19039;DHT22;9652;49.014;12.052;2023-03-26T14:17:46;16.80;65.50
19039;DHT22;9652;49.014;12.052;2023-03-26T14:20:50;16.80;65.40
19039;DHT22;9652;49.014;12.052;2023-03-26T14:23:51;16.80;65.40
19039;DHT22;9652;49.014;12.052;2023-03-26T14:27:04;16.80;65.60
19039;DHT22;9652;49.014;12.052;2023-03-26T14:29:53;16.90;65.40
19039;DHT22;9652;49.014;12.052;2023-03-26T14:32:48;16.90;65.50
19039;DHT22;9652;49.014;12.052;2023-03-26T14:35:35;17.00;65.00
19039;DHT22;9652;49.014;12.052;2023-03-26T14:38:23;17.00;64.40
19039;DHT22;9652;49.014;12.052;2023-03-26T14:41:12;16.90;64.00
19039;DHT22;9652;49.014;12.052;2023-03-26T14:44:32;16.80;63.80
19039;DHT22;9652;49.014;12.052;2023-03-26T14:47:16;16.70;63.70
19039;DHT22;9652;49.014;12.052;2023-03-26T14:50:07;16.70;65.80
19039;DHT22;9652;49.014;12.052;2023-03-26T14:52:59;16.70;67.40
19039;DHT22;9652;49.014;12.052;2023-03-26T14:55:45;16.70;68.30
19039;DHT22;9652;49.014;12.052;2023-03-26T14:58:43;16.90;67.10
19039;DHT22;9652;49.014;12.052;2023-03-26T15:01:50;17.00;66.00
19039;DHT22;9652;49.014;12.052;2023-03-26T15:04:45;17.10;65.50
19039;DHT22;9652;49.014;12.052;2023-03-26T15:07:50;17.10;66.10
19039;DHT22;9652;49.014;12.052;2023-03-26T15:11:04;17.20;66.90
19039;DHT22;9652;49.014;12.052;2023-03-26T15:13:52;17.50;65.90
19039;DHT22;9652;49.014;12.052;2023-03-26T15:17:00;17.60;65.70
19039;DHT22;9652;49.014;12.052;2023-03-26T15:23:29;17.80;63.10
19039;DHT22;9652;49.014;12.052;2023-03-26T15:36:58;17.60;61.00
19039;DHT22;9652;49.014;12.052;2023-03-26T15:39:59;17.40;60.90
19039;DHT22;9652;49.014;12.052;2023-03-26T15:42:54;17.10;61.30
19039;DHT22;9652;49.014;12.052;2023-03-26T15:45:34;16.90;61.20
19039;DHT22;9652;49.014;12.052;2023-03-26T15:51:27;16.50;62.00
19039;DHT22;9652;49.014;12.052;2023-03-26T15:54:13;16.40;63.70
19039;DHT22;9652;49.014;12.052;2023-03-26T15:57:06;16.20;64.30
19039;DHT22;9652;49.014;12.052;2023-03-26T15:59:51;16.20;64.50
19039;DHT22;9652;49.014;12.052;2023-03-26T16:02:42;16.10;64.30
19039;DHT22;9652;49.014;12.052;2023-03-26T16:05:39;16.00;63.90
19039;DHT22;9652;49.014;12.052;2023-03-26T16:08:24;15.80;63.80
19039;DHT22;9652;49.014;12.052;2023-03-26T16:11:03;15.70;63.10
19039;DHT22;9652;49.014;12.052;2023-03-26T16:13:37;15.60;63.00
19039;DHT22;9652;49.014;12.052;2023-03-26T16:16:18;15.40;63.30
19039;DHT22;9652;49.014;12.052;2023-03-26T16:18:58;15.30;63.60
19039;DHT22;9652;49.014;12.052;2023-03-26T16:25:29;15.10;64.50
19039;DHT22;9652;49.014;12.052;2023-03-26T16:28:28;15.00;64.60
19039;DHT22;9652;49.014;12.052;2023-03-26T16:31:27;14.90;65.10
19039;DHT22;9652;49.014;12.052;2023-03-26T16:34:24;14.90;65.20
19039;DHT22;9652;49.014;12.052;2023-03-26T16:36:54;14.80;65.10
19039;DHT22;9652;49.014;12.052;2023-03-26T16:39:38;14.80;65.20
19039;DHT22;9652;49.014;12.052;2023-03-26T16:42:29;14.80;65.10
19039;DHT22;9652;49.014;12.052;2023-03-26T16:45:20;14.80;64.90
19039;DHT22;9652;49.014;12.052;2023-03-26T16:47:58;14.70;64.70
19039;DHT22;9652;49.014;12.052;2023-03-26T16:50:35;14.70;65.00
19039;DHT22;9652;49.014;12.052;2023-03-26T16:53:20;14.60;65.10
19039;DHT22;9652;49.014;12.052;2023-03-26T16:55:57;14.60;65.50
19039;DHT22;9652;49.014;12.052;2023-03-26T16:58:34;14.60;65.90
19039;DHT22;9652;49.014;12.052;2023-03-26T17:01:17;14.60;65.90
19039;DHT22;9652;49.014;12.052;2023-03-26T17:03:55;14.60;65.90
19039;DHT22;9652;49.014;12.052;2023-03-26T17:06:35;14.60;66.00
19039;DHT22;9652;49.014;12.052;2023-03-26T17:09:23;14.60;66.00
19039;DHT22;9652;49.014;12.052;2023-03-26T17:12:03;14.60;65.90
19039;DHT22;9652;49.014;12.052;2023-03-26T17:14:51;14.60;65.70
19039;DHT22;9652;49.014;12.052;2023-03-26T17:17:41;14.60;65.50
19039;DHT22;9652;49.014;12.052;2023-03-26T17:20:24;14.60;65.30
19039;DHT22;9652;49.014;12.052;2023-03-26T17:23:12;14.50;65.30
19039;DHT22;9652;49.014;12.052;2023-03-26T17:25:59;14.40;65.40
19039;DHT22;9652;49.014;12.052;2023-03-26T17:28:59;14.40;65.50
19039;DHT22;9652;49.014;12.052;2023-03-26T17:31:40;14.40;65.70
19039;DHT22;9652;49.014;12.052;2023-03-26T17:34:33;14.40;66.00
19039;DHT22;9652;49.014;12.052;2023-03-26T17:37:29;14.30;66.00
19039;DHT22;9652;49.014;12.052;2023-03-26T17:40:47;14.30;66.20
19039;DHT22;9652;49.014;12.052;2023-03-26T17:43:36;14.30;66.00